Thargomindah, Australia
Current Conditions -  °F | °C
As of 4:00 AM on Friday 24 Oct 2014 (Local Time) from YBCV Reporting Station
Clear Clear  
Wind Chill: 70°   Ceiling: Unl
Heat Index: 70°   Visibility: 6mi
Dew Point: 46°   Wind: 8mph
Humidity: 43%   Direction: 30°NNE
Pressure: 30.06"   Gusts: NA
Location:  28°S, 143.82°E
Report Text: YBCV 231800Z AUTO 03007KT 9999 // NCD 21/08 Q1018
Loading
Personal Weather Stations






























Interactive Weather Map New forecast layout! Learn more

10-Day Weather Forecast

Advertisements
Track Severe Weather on mobile